createdAt,value
2023-05-13T08:25:12.689Z,3.70
2023-05-13T08:30:17.822Z,3.78
2023-05-13T08:35:22.011Z,3.60
2023-05-13T08:40:27.833Z,3.50
2023-05-13T08:45:32.345Z,3.53
2023-05-13T08:50:36.174Z,3.30
2023-05-13T08:55:42.583Z,3.30
2023-05-13T09:01:01.218Z,2.83
2023-05-13T09:06:06.157Z,3.03
2023-05-13T09:11:12.087Z,3.15
2023-05-13T09:16:16.172Z,3.33
2023-05-13T09:21:27.462Z,2.72
2023-05-13T09:26:33.528Z,2.70
2023-05-13T09:31:37.725Z,2.70
2023-05-13T09:36:42.676Z,3.15
2023-05-13T09:41:48.823Z,2.63
2023-05-13T09:46:54.027Z,2.90
2023-05-13T09:51:58.415Z,3.08
2023-05-13T09:57:05.474Z,3.13
2023-05-13T10:02:11.323Z,3.75
2023-05-13T10:07:15.755Z,4.22
2023-05-13T10:12:23.168Z,4.00
2023-05-13T10:17:28.283Z,4.30
2023-05-13T10:22:34.231Z,4.35
2023-05-13T10:27:41.571Z,4.47
2023-05-13T10:32:45.359Z,4.82
2023-05-13T10:38:01.409Z,5.28
2023-05-13T10:43:18.952Z,5.15
2023-05-13T10:48:23.721Z,5.30
2023-05-13T10:53:31.549Z,5.20
2023-05-13T10:58:38.687Z,5.25
2023-05-13T11:03:42.942Z,5.35
2023-05-13T11:08:48.105Z,5.60
2023-05-13T11:13:54.257Z,4.72
2023-05-13T11:18:58.573Z,4.82
2023-05-13T11:24:05.381Z,4.72
2023-05-13T11:29:11.439Z,4.70
2023-05-13T11:34:17.204Z,3.10
2023-05-13T11:39:22.957Z,2.25
2023-05-13T11:44:29.614Z,2.38
2023-05-13T11:49:41.366Z,2.53
2023-05-13T11:54:49.969Z,2.45
2023-05-13T11:59:58.724Z,2.90
2023-05-13T12:05:03.956Z,2.50
2023-05-13T12:10:09.419Z,2.80
2023-05-13T12:15:17.225Z,2.88
2023-05-13T12:20:22.193Z,2.75
2023-05-13T12:25:51.678Z,2.53
2023-05-13T12:30:59.880Z,2.30
2023-05-13T12:36:23.766Z,2.58
2023-05-13T12:41:29.357Z,2.85
2023-05-13T12:46:36.213Z,2.67
2023-05-13T12:51:40.274Z,2.90
2023-05-13T12:56:44.314Z,2.20
2023-05-13T13:01:50.709Z,2.20
2023-05-13T13:06:54.824Z,2.17
2023-05-13T13:11:58.764Z,1.98
2023-05-13T13:17:07.133Z,2.03
2023-05-13T13:22:11.216Z,2.15
2023-05-13T13:27:15.524Z,1.95
2023-05-13T13:32:21.589Z,2.15
2023-05-13T13:37:25.800Z,2.25
2023-05-13T13:42:43.356Z,1.98
2023-05-13T13:47:51.353Z,2.20
2023-05-13T13:52:55.574Z,2.17
2023-05-13T13:57:59.587Z,2.10
2023-05-13T14:03:05.694Z,2.10
2023-05-13T14:08:09.757Z,2.17
2023-05-13T14:13:13.687Z,2.25
2023-05-13T14:18:19.706Z,2.10
2023-05-13T14:23:23.670Z,2.08
2023-05-13T14:28:27.683Z,2.42
2023-05-13T14:33:33.750Z,2.00
2023-05-13T14:38:38.060Z,2.75
2023-05-13T14:43:41.982Z,2.33
2023-05-13T14:48:47.883Z,2.25
2023-05-13T14:53:52.012Z,2.28
2023-05-13T14:58:56.183Z,2.45
2023-05-13T15:04:02.316Z,2.40
2023-05-13T15:09:06.505Z,2.20
2023-05-13T15:14:10.501Z,2.13
2023-05-13T15:19:16.451Z,2.30
2023-05-13T15:24:20.581Z,1.92
2023-05-13T15:29:24.592Z,1.90
2023-05-13T15:34:30.898Z,2.05
2023-05-13T15:39:34.973Z,2.30
2023-05-13T15:44:38.982Z,2.33
2023-05-13T15:49:45.026Z,2.40
2023-05-13T15:54:49.368Z,2.33
2023-05-13T15:59:53.321Z,2.40
2023-05-13T16:04:59.304Z,2.30
2023-05-13T16:10:03.339Z,2.40
2023-05-13T16:15:09.005Z,2.42
2023-05-13T16:20:15.267Z,2.33
2023-05-13T16:25:19.303Z,2.88
2023-05-13T16:30:23.512Z,3.03
2023-05-13T16:35:29.826Z,2.60
2023-05-13T16:40:33.936Z,2.67
2023-05-13T16:45:38.860Z,3.13
2023-05-13T16:50:44.965Z,2.90
2023-05-13T16:55:48.998Z,2.90
2023-05-13T17:00:53.052Z,2.22
2023-05-13T17:05:59.079Z,2.85
2023-05-13T17:11:03.139Z,3.20
2023-05-13T17:16:08.150Z,2.95
2023-05-13T17:21:14.346Z,2.78
2023-05-13T17:26:18.525Z,2.80
2023-05-13T17:31:24.432Z,3.50
2023-05-13T17:36:32.106Z,3.25
2023-05-13T17:41:36.349Z,2.65
2023-05-13T17:46:40.330Z,3.45
2023-05-13T17:51:46.263Z,3.10
2023-05-13T17:56:50.437Z,3.47
2023-05-13T18:01:54.999Z,2.80
2023-05-13T18:07:01.239Z,3.25
2023-05-13T18:12:06.749Z,3.33
2023-05-13T18:17:10.739Z,2.95
2023-05-13T18:22:16.816Z,2.75
2023-05-13T18:27:21.003Z,3.20
2023-05-13T18:32:25.236Z,3.00
2023-05-13T18:37:31.113Z,2.97
2023-05-13T18:42:35.105Z,3.17
2023-05-13T18:47:39.244Z,3.05
2023-05-13T18:52:45.572Z,3.30
2023-05-13T18:57:49.627Z,2.97
2023-05-13T19:02:54.024Z,3.30
2023-05-13T19:08:00.033Z,3.30
2023-05-13T19:13:05.979Z,3.77
2023-05-13T19:18:10.271Z,3.43
2023-05-13T19:23:16.227Z,3.60
2023-05-13T19:28:20.164Z,4.07
2023-05-13T19:33:24.316Z,3.60
2023-05-13T19:38:30.337Z,3.87
2023-05-13T19:43:34.277Z,4.17
2023-05-13T19:48:38.363Z,4.27
2023-05-13T19:53:44.261Z,4.60
2023-05-13T19:58:48.562Z,4.50
2023-05-13T20:03:52.764Z,4.10
2023-05-13T20:09:00.198Z,4.47
2023-05-13T20:14:07.116Z,5.47
2023-05-13T20:19:11.158Z,4.63
2023-05-13T20:24:17.263Z,4.77
2023-05-13T20:29:21.714Z,4.70
2023-05-13T20:34:26.035Z,5.23
2023-05-13T20:39:31.993Z,5.50
2023-05-13T20:44:36.380Z,5.53
2023-05-13T20:49:43.161Z,5.13
2023-05-13T20:54:49.248Z,5.93
2023-05-13T20:59:53.645Z,4.90
2023-05-13T21:04:57.688Z,6.07
2023-05-13T21:10:03.616Z,6.10
2023-05-13T21:15:10.332Z,5.90
2023-05-13T21:20:16.092Z,5.90
2023-05-13T21:25:22.359Z,6.47
2023-05-13T21:30:26.593Z,6.50
2023-05-13T21:35:30.651Z,6.47
2023-05-13T21:40:37.785Z,6.77
2023-05-13T21:45:41.923Z,6.27
2023-05-13T21:50:45.995Z,7.20
